EST,Max TemperatureF,Mean TemperatureF,Min TemperatureF,Max Dew PointF,MeanDew PointF,Min DewpointF,Max Humidity, Mean Humidity, Min Humidity, Max Sea Level PressureIn, Mean Sea Level PressureIn, Min Sea Level PressureIn, Max VisibilityMiles, Mean VisibilityMiles, Min VisibilityMiles, Max Wind SpeedMPH, Mean Wind SpeedMPH, Max Gust SpeedMPH,PrecipitationIn, CloudCover, Events, WindDirDegrees
2014-2-1,80,75,70,72,71,69,100,90,79,30.12,30.08,30.05,10,10,10,13,8,20,T,4,,80
2014-2-2,80,77,73,72,71,69,93,84,74,30.13,30.07,30.03,10,10,10,16,11,21,0.00,0,,102
2014-2-3,81,78,75,74,73,71,94,87,79,30.10,30.06,30.02,10,10,10,16,10,25,0.00,2,,109
2014-2-4,81,79,76,74,72,71,94,84,74,30.09,30.05,30.01,10,10,10,18,14,26,0.00,2,,110
2014-2-5,82,79,75,74,73,71,94,84,74,30.10,30.05,30.02,10,10,10,17,10,21,T,1,Rain,146
2014-2-6,81,78,74,72,71,66,87,81,74,30.11,30.06,30.03,10,10,10,13,8,18,0.00,0,,121
2014-2-7,80,76,72,73,70,67,93,84,74,30.12,30.08,30.05,10,10,10,12,6,19,0.00,1,,88
2014-2-8,81,76,71,73,71,69,100,87,74,30.10,30.06,30.01,10,10,5,15,7,19,0.00,4,,58
2014-2-9,82,76,69,70,68,66,97,80,62,30.10,30.06,30.01,10,10,10,17,8,22,0.00,3,,5
2014-2-10,79,74,69,72,69,66,93,84,74,30.10,30.05,30.01,10,10,10,10,6,14,0.00,4,,3
2014-2-11,80,73,66,70,68,65,93,84,74,30.09,30.05,30.02,10,10,10,12,5,15,0.00,1,,14
2014-2-12,81,75,69,73,69,65,93,84,74,30.03,29.94,29.84,10,8,1,32,10,48,0.75,4,Rain-Thunderstorm,192
2014-2-13,75,70,65,69,63,54,90,77,63,30.00,29.90,29.81,10,10,9,23,15,30,T,5,Rain-Thunderstorm,305
2014-2-14,69,65,61,62,56,51,87,73,58,30.08,30.02,29.97,10,10,10,12,5,14,0.00,4,,20
2014-2-15,76,69,62,63,61,58,93,75,57,30.16,30.08,30.00,10,10,10,16,8,20,T,2,,313
2014-2-16,72,68,63,57,49,36,78,53,27,30.21,30.16,30.11,10,10,10,15,8,19,0.00,0,,7
2014-2-17,78,70,61,64,61,57,90,73,56,30.21,30.17,30.13,10,10,10,16,9,22,0.00,0,,56
2014-2-18,79,73,67,65,63,61,81,70,58,30.22,30.17,30.13,10,10,10,17,11,23,0.00,1,,91
2014-2-19,79,75,71,69,66,63,84,73,62,30.15,30.11,30.07,10,10,2,18,13,26,0.00,1,,106
2014-2-20,81,77,72,73,71,69,93,84,74,30.13,30.08,30.04,10,10,10,17,13,25,0.00,1,,101
2014-2-21,81,78,75,73,72,71,94,84,74,30.10,30.06,30.01,10,10,10,16,10,22,0.00,0,,130
2014-2-22,81,78,74,74,72,70,94,84,74,30.12,30.06,30.02,10,10,10,10,6,13,0.00,1,,119
2014-2-23,81,78,74,73,71,70,94,84,74,30.09,30.05,30.01,10,10,10,12,6,14,0.00,1,,97
2014-2-24,81,77,73,73,71,69,93,81,69,30.07,30.04,30.00,10,10,10,12,6,15,0.00,3,,352
2014-2-25,82,77,71,71,70,68,93,84,74,30.07,30.02,29.96,10,10,10,13,7,20,0.00,1,,360
2014-2-26,79,74,68,71,69,67,100,87,74,29.99,29.91,29.83,10,10,7,13,5,21,0.00,1,,235
2014-2-27,77,73,68,71,68,63,87,82,76,29.94,29.89,29.83,10,10,9,23,12,31,0.07,6,Rain,332
2014-2-28,74,71,67,66,64,60,84,76,68,30.10,30.02,29.91,10,10,5,14,7,18,0.10,6,Rain,12